Time;durP1;ratioP1;P1;durP2;ratioP2;P2;SDS_P1;SDS_P2;PMS_P1;PMS_P2;Temp;Humidity;BMP_temperature;BMP_pressure;BME280_temperature;BME280_humidity;BME280_pressure;Samples;Min_cycle;Max_cycle;Signal;HPM_P1;HPM_P2
2022/09/19 00:00:17;;;;;;;4.43;2.30;;;11.00;99.90;;;;;;5076403;28;20479;-71
2022/09/19 00:02:44;;;;;;;5.50;2.60;;;11.00;99.90;;;;;;5076142;28;20552;-71
2022/09/19 00:05:12;;;;;;;7.80;2.07;;;11.10;99.90;;;;;;5075432;28;20448;-71
2022/09/19 00:07:38;;;;;;;5.03;2.00;;;11.10;99.90;;;;;;5076027;28;20449;-71
2022/09/19 00:10:06;;;;;;;10.23;2.43;;;11.10;99.90;;;;;;5076287;28;20488;-71
2022/09/19 00:12:33;;;;;;;5.90;2.47;;;11.10;99.90;;;;;;5075713;28;21015;-72
2022/09/19 00:15:00;;;;;;;13.37;2.73;;;11.10;99.90;;;;;;5076208;28;20549;-72
2022/09/19 00:17:27;;;;;;;11.57;2.80;;;11.10;99.90;;;;;;5076564;28;20447;-72
2022/09/19 00:19:53;;;;;;;3.97;2.30;;;11.10;99.90;;;;;;5075782;28;20460;-71
2022/09/19 00:22:22;;;;;;;6.60;2.90;;;11.10;99.90;;;;;;5078430;28;20463;-72
2022/09/19 00:24:49;;;;;;;2.93;2.00;;;11.10;99.90;;;;;;5079733;28;20455;-72
2022/09/19 00:27:19;;;;;;;9.67;2.70;;;11.10;99.90;;;;;;5079929;28;20449;-71
2022/09/19 00:29:47;;;;;;;6.83;2.20;;;11.10;99.90;;;;;;5079461;28;20490;-70
2022/09/19 00:32:14;;;;;;;9.10;2.00;;;11.20;99.90;;;;;;5079554;28;20481;-71
2022/09/19 00:34:43;;;;;;;9.10;3.03;;;11.20;99.90;;;;;;5079503;28;20491;-72
2022/09/19 00:37:11;;;;;;;8.30;2.43;;;11.20;99.90;;;;;;5079421;28;20449;-72
2022/09/19 00:39:39;;;;;;;5.23;2.03;;;11.20;99.90;;;;;;5079221;28;20456;-71
2022/09/19 00:42:09;;;;;;;9.20;2.90;;;11.20;99.90;;;;;;5079044;28;20510;-72
2022/09/19 00:44:56;;;;;;;5.10;2.20;;;11.20;99.90;;;;;;5079086;28;20483;-71
2022/09/19 00:47:29;;;;;;;3.67;1.80;;;11.20;99.90;;;;;;5077162;28;20442;-71
2022/09/19 00:49:59;;;;;;;8.73;3.00;;;11.10;99.90;;;;;;5076782;28;20473;-70
2022/09/19 00:52:33;;;;;;;7.40;2.83;;;11.10;99.90;;;;;;5077837;28;20480;-72
2022/09/19 00:55:02;;;;;;;9.80;2.10;;;11.10;99.90;;;;;;5078582;28;20435;-72
2022/09/19 00:57:40;;;;;;;7.60;2.37;;;11.10;99.90;;;;;;5079052;28;20945;-72
2022/09/19 01:00:09;;;;;;;11.30;2.63;;;11.10;99.90;;;;;;5079366;28;20439;-71
2022/09/19 01:02:36;;;;;;;8.10;2.60;;;11.00;99.90;;;;;;5078578;28;20480;-71
2022/09/19 01:05:06;;;;;;;10.97;3.67;;;11.10;99.90;;;;;;5079175;28;20466;-71
2022/09/19 01:07:44;;;;;;;8.90;2.40;;;11.10;99.90;;;;;;5078154;28;20452;-71
2022/09/19 01:10:27;;;;;;;5.23;2.00;;;11.10;99.90;;;;;;5078643;28;20478;-71
2022/09/19 01:13:09;;;;;;;8.30;2.33;;;11.00;99.90;;;;;;5076034;28;20836;-72
2022/09/19 01:15:41;;;;;;;7.93;2.57;;;11.00;99.90;;;;;;5078642;28;20435;-72
2022/09/19 01:18:09;;;;;;;5.90;2.10;;;11.00;99.90;;;;;;5077962;28;20920;-71
2022/09/19 01:21:37;;;;;;;12.73;2.73;;;11.00;99.90;;;;;;5078230;28;20442;-72
2022/09/19 01:24:00;;;;;;;8.10;2.70;;;11.00;99.90;;;;;;5078471;28;20553;-72
2022/09/19 01:26:44;;;;;;;7.80;2.30;;;11.00;99.90;;;;;;5078709;28;20445;-71
2022/09/19 01:29:17;;;;;;;7.07;2.30;;;11.00;99.90;;;;;;5078092;28;20574;-71
2022/09/19 01:31:46;;;;;;;7.70;2.10;;;10.90;99.90;;;;;;5076381;28;20445;-70
2022/09/19 01:34:18;;;;;;;5.43;2.83;;;10.90;99.90;;;;;;5075270;28;20839;-70
2022/09/19 01:36:48;;;;;;;3.97;1.87;;;10.90;99.90;;;;;;5076522;28;20441;-70
2022/09/19 01:39:19;;;;;;;8.53;2.27;;;10.90;99.90;;;;;;5075594;28;20434;-70
2022/09/19 01:41:49;;;;;;;9.23;2.43;;;10.90;99.90;;;;;;5075859;28;20438;-71
2022/09/19 01:44:19;;;;;;;6.33;2.20;;;10.80;99.90;;;;;;5075284;28;20476;-71
2022/09/19 01:46:53;;;;;;;10.43;2.33;;;10.90;99.90;;;;;;5076053;28;20499;-70
2022/09/19 01:49:44;;;;;;;7.30;3.07;;;10.80;99.90;;;;;;5075728;28;20483;-70
2022/09/19 01:52:21;;;;;;;8.07;2.53;;;10.90;99.90;;;;;;5075445;28;20453;-71
2022/09/19 01:54:57;;;;;;;15.30;3.60;;;10.80;99.90;;;;;;5075558;28;20569;-70
2022/09/19 01:57:33;;;;;;;7.13;2.83;;;10.80;99.90;;;;;;5075432;28;20429;-71
2022/09/19 02:00:11;;;;;;;7.57;2.37;;;10.80;99.90;;;;;;5075393;28;20433;-70
2022/09/19 02:02:46;;;;;;;11.20;3.80;;;10.80;99.90;;;;;;5074539;28;20991;-70
2022/09/19 02:05:18;;;;;;;11.70;2.60;;;10.80;99.90;;;;;;5075156;28;20520;-70
2022/09/19 02:07:54;;;;;;;8.10;2.20;;;10.80;99.90;;;;;;5075520;28;20461;-70
2022/09/19 02:10:24;;;;;;;12.13;3.63;;;10.80;99.90;;;;;;5075091;28;20919;-70
2022/09/19 02:12:56;;;;;;;9.40;3.20;;;10.80;99.90;;;;;;5075157;28;20479;-71
2022/09/19 02:15:29;;;;;;;10.57;4.33;;;10.80;99.90;;;;;;5075035;28;20490;-71
2022/09/19 02:18:02;;;;;;;7.80;1.77;;;10.70;99.90;;;;;;5075252;28;20433;-70
2022/09/19 02:20:32;;;;;;;13.37;2.43;;;10.80;99.90;;;;;;5074660;28;20450;-71
2022/09/19 02:23:04;;;;;;;16.73;2.83;;;10.80;99.90;;;;;;5075555;28;20473;-71
2022/09/19 02:25:34;;;;;;;14.30;2.80;;;10.80;99.90;;;;;;5077937;28;20448;-71
2022/09/19 02:28:06;;;;;;;7.83;2.40;;;10.80;99.90;;;;;;5076332;28;20806;-70
2022/09/19 02:30:34;;;;;;;15.30;2.43;;;10.80;99.90;;;;;;5075271;28;20469;-70
2022/09/19 02:33:04;;;;;;;10.70;2.93;;;10.80;99.90;;;;;;5074950;28;20471;-71
2022/09/19 02:35:40;;;;;;;6.00;2.20;;;10.90;99.90;;;;;;5075434;28;20434;-71
2022/09/19 02:38:16;;;;;;;8.43;1.90;;;10.80;99.90;;;;;;5074578;28;20454;-71
2022/09/19 02:40:49;;;;;;;5.80;2.00;;;10.80;99.90;;;;;;5074799;28;20439;-70
2022/09/19 02:43:24;;;;;;;7.00;1.90;;;10.80;99.90;;;;;;5074794;28;20465;-71
2022/09/19 02:45:55;;;;;;;7.00;2.47;;;10.80;99.90;;;;;;5074612;28;20439;-71
2022/09/19 02:48:30;;;;;;;5.67;2.30;;;10.70;99.90;;;;;;5075236;28;20798;-70
2022/09/19 02:51:01;;;;;;;8.30;2.43;;;10.80;99.90;;;;;;5074731;28;21003;-70
2022/09/19 02:53:35;;;;;;;9.70;2.53;;;10.80;99.90;;;;;;5076060;28;20984;-71
2022/09/19 02:56:04;;;;;;;8.80;2.50;;;10.70;99.90;;;;;;5075651;28;20438;-71
2022/09/19 02:58:38;;;;;;;9.23;2.83;;;10.80;99.90;;;;;;5075001;28;20475;-70
2022/09/19 03:01:10;;;;;;;8.17;2.07;;;10.80;99.90;;;;;;5074904;28;20456;-70
2022/09/19 03:06:45;;;;;;;8.30;2.20;;;10.70;99.90;;;;;;5032830;28;20553;-71
2022/09/19 03:09:14;;;;;;;10.20;2.50;;;10.70;99.90;;;;;;5060911;28;20445;-71
2022/09/19 03:11:47;;;;;;;9.10;2.20;;;10.70;99.90;;;;;;5074248;28;20481;-71
2022/09/19 03:14:13;;;;;;;6.73;1.97;;;10.70;99.90;;;;;;5074325;28;20976;-71
2022/09/19 03:16:47;;;;;;;9.93;2.23;;;10.70;99.90;;;;;;5075012;28;20950;-71
2022/09/19 03:19:14;;;;;;;8.83;2.27;;;10.70;99.90;;;;;;5073832;28;20547;-70
2022/09/19 03:21:41;;;;;;;11.67;2.77;;;10.70;99.90;;;;;;5073925;28;20437;-71
2022/09/19 03:24:09;;;;;;;9.43;2.40;;;10.70;99.90;;;;;;5074218;28;20988;-70
2022/09/19 03:26:37;;;;;;;13.37;2.03;;;10.70;99.90;;;;;;5074134;28;20450;-70
2022/09/19 03:29:06;;;;;;;5.17;2.10;;;10.80;99.90;;;;;;5073880;28;20462;-70
2022/09/19 03:31:34;;;;;;;9.57;2.50;;;10.80;99.90;;;;;;5074107;28;20853;-70
2022/09/19 03:34:02;;;;;;;6.27;2.17;;;10.80;99.90;;;;;;5073804;28;20471;-71
2022/09/19 03:36:30;;;;;;;9.27;2.33;;;10.90;99.90;;;;;;5074015;28;20556;-71
2022/09/19 03:39:01;;;;;;;10.17;2.10;;;10.80;99.90;;;;;;5073794;28;20461;-70
2022/09/19 03:41:29;;;;;;;6.30;1.80;;;10.80;99.90;;;;;;5073883;28;20486;-70
2022/09/19 03:44:00;;;;;;;9.90;2.00;;;10.80;99.90;;;;;;5074043;28;20570;-71
2022/09/19 03:46:27;;;;;;;10.27;3.63;;;10.80;99.90;;;;;;5073892;28;20437;-71
2022/09/19 03:48:54;;;;;;;7.00;2.17;;;10.80;99.90;;;;;;5074313;28;20457;-71
2022/09/19 03:51:23;;;;;;;10.13;2.93;;;10.80;99.90;;;;;;5074190;28;20486;-71
2022/09/19 03:53:49;;;;;;;9.50;2.40;;;10.80;99.90;;;;;;5074348;28;20473;-71
2022/09/19 03:56:17;;;;;;;8.93;2.10;;;10.80;99.90;;;;;;5075151;28;20480;-71
2022/09/19 03:58:44;;;;;;;10.67;2.17;;;10.70;99.90;;;;;;5079939;28;20480;-71
2022/09/19 04:01:15;;;;;;;10.60;3.00;;;10.70;99.90;;;;;;5079118;28;20454;-71
2022/09/19 04:03:43;;;;;;;18.90;3.33;;;10.70;99.90;;;;;;5079542;28;20507;-71
2022/09/19 04:06:10;;;;;;;8.33;2.73;;;10.80;99.90;;;;;;5079890;28;20503;-71
2022/09/19 04:08:38;;;;;;;11.67;2.40;;;10.70;99.90;;;;;;5079729;28;20459;-71
2022/09/19 04:11:05;;;;;;;9.50;3.10;;;10.70;99.90;;;;;;5079467;28;20485;-71
2022/09/19 04:13:33;;;;;;;8.03;2.67;;;10.70;99.90;;;;;;5079537;28;20470;-71
2022/09/19 04:16:00;;;;;;;10.13;2.60;;;10.70;99.90;;;;;;5080887;28;20801;-71
2022/09/19 04:18:27;;;;;;;10.53;2.80;;;10.70;99.90;;;;;;5079868;28;20832;-71
2022/09/19 04:20:55;;;;;;;7.20;2.60;;;10.60;99.90;;;;;;5079253;28;20914;-71
2022/09/19 04:23:23;;;;;;;8.43;2.63;;;10.60;99.90;;;;;;5079590;28;20523;-72
2022/09/19 04:25:51;;;;;;;5.30;3.10;;;10.60;99.90;;;;;;5079114;28;20467;-71
2022/09/19 04:28:20;;;;;;;9.53;2.83;;;10.60;99.90;;;;;;5080226;28;20514;-72
2022/09/19 04:30:46;;;;;;;10.57;2.80;;;10.60;99.90;;;;;;5079291;28;20928;-72
2022/09/19 04:33:17;;;;;;;16.63;4.07;;;10.60;99.90;;;;;;5079440;28;20984;-72
2022/09/19 04:35:44;;;;;;;15.33;3.10;;;10.60;99.90;;;;;;5079562;28;20449;-72
2022/09/19 04:38:13;;;;;;;7.83;2.47;;;10.60;99.90;;;;;;5079242;28;20541;-72
2022/09/19 04:40:40;;;;;;;14.40;3.73;;;10.60;99.90;;;;;;5079995;28;20430;-71
2022/09/19 04:43:10;;;;;;;9.33;2.50;;;10.60;99.90;;;;;;5078549;28;20867;-71
2022/09/19 04:45:37;;;;;;;15.03;3.30;;;10.60;99.90;;;;;;5080723;28;20457;-71
2022/09/19 04:48:05;;;;;;;15.43;3.13;;;10.60;99.90;;;;;;5078837;28;20450;-71
2022/09/19 04:50:32;;;;;;;7.60;3.00;;;10.70;99.90;;;;;;5078439;28;20488;-72
2022/09/19 04:52:59;;;;;;;8.47;2.67;;;10.70;99.90;;;;;;5078684;28;20485;-71
2022/09/19 04:55:27;;;;;;;11.10;2.43;;;10.70;99.90;;;;;;5078585;28;20435;-72
2022/09/19 04:57:54;;;;;;;12.03;4.27;;;10.70;99.90;;;;;;5078113;28;20556;-72
2022/09/19 05:03:18;;;;;;;11.60;2.63;;;10.70;99.90;;;;;;5094062;27;20855;-73
2022/09/19 05:05:50;;;;;;;7.30;2.83;;;10.70;99.90;;;;;;5092703;28;20462;-73
2022/09/19 05:08:20;;;;;;;11.30;3.43;;;10.80;99.90;;;;;;5092671;28;20428;-72
2022/09/19 05:10:48;;;;;;;13.63;3.33;;;10.80;99.90;;;;;;5092837;28;20471;-70
2022/09/19 05:13:15;;;;;;;12.70;2.50;;;10.80;99.90;;;;;;5091410;28;20470;-70
2022/09/19 05:15:42;;;;;;;9.57;2.60;;;10.80;99.90;;;;;;5093646;28;20437;-70
2022/09/19 05:18:10;;;;;;;8.17;2.67;;;10.80;99.90;;;;;;5094149;28;20440;-70
2022/09/19 05:20:39;;;;;;;11.77;2.70;;;10.80;99.90;;;;;;5093930;28;20467;-70
2022/09/19 05:23:06;;;;;;;6.37;2.23;;;10.90;99.90;;;;;;5093336;28;20486;-70
2022/09/19 05:25:38;;;;;;;10.77;2.40;;;10.80;99.90;;;;;;5093707;28;20836;-69
2022/09/19 05:28:06;;;;;;;10.07;2.60;;;10.90;99.90;;;;;;5092655;28;20477;-71
2022/09/19 05:30:33;;;;;;;9.80;2.80;;;10.90;99.90;;;;;;5091278;28;20912;-71
2022/09/19 05:33:02;;;;;;;10.70;3.37;;;10.90;99.90;;;;;;5091345;28;20462;-71
2022/09/19 05:35:29;;;;;;;11.17;3.50;;;10.90;99.90;;;;;;5092380;28;20449;-72
2022/09/19 05:37:57;;;;;;;16.20;4.50;;;10.90;99.90;;;;;;5091749;28;20464;-71
2022/09/19 05:40:24;;;;;;;7.03;3.20;;;10.90;99.90;;;;;;5093451;28;20515;-71
2022/09/19 05:42:53;;;;;;;10.70;2.97;;;10.90;99.90;;;;;;5093240;28;20516;-70
2022/09/19 05:45:21;;;;;;;9.43;3.10;;;11.00;99.90;;;;;;5092714;28;20463;-70
2022/09/19 05:47:49;;;;;;;9.40;3.00;;;11.00;99.90;;;;;;5092701;28;20445;-71
2022/09/19 05:50:16;;;;;;;12.50;2.40;;;11.00;99.90;;;;;;5092986;28;20457;-71
2022/09/19 05:55:29;;;;;;;9.97;2.10;;;11.10;99.90;;;;;;5092524;28;20921;-71
2022/09/19 05:57:58;;;;;;;10.40;2.73;;;11.10;99.90;;;;;;5092652;28;20454;-71
2022/09/19 06:00:27;;;;;;;8.03;2.30;;;11.10;99.90;;;;;;5092506;28;20481;-71
2022/09/19 06:02:55;;;;;;;10.47;2.73;;;11.20;99.90;;;;;;5092469;28;20493;-71
2022/09/19 06:05:23;;;;;;;10.27;2.50;;;11.20;99.90;;;;;;5092511;28;20801;-71
2022/09/19 06:07:51;;;;;;;11.33;2.30;;;11.20;99.90;;;;;;5092077;28;20933;-71
2022/09/19 06:10:18;;;;;;;9.50;3.00;;;11.30;99.90;;;;;;5091864;28;20453;-71
2022/09/19 06:12:47;;;;;;;7.87;2.03;;;11.30;99.90;;;;;;5088918;28;20463;-71
2022/09/19 06:15:13;;;;;;;7.83;2.43;;;11.40;99.90;;;;;;5078590;28;20454;-71
2022/09/19 06:17:41;;;;;;;9.63;2.70;;;11.50;99.90;;;;;;5079124;28;20541;-71
2022/09/19 06:20:09;;;;;;;7.40;2.67;;;11.40;99.90;;;;;;5078361;28;20451;-71
2022/09/19 06:22:36;;;;;;;11.10;2.67;;;11.50;99.90;;;;;;5078521;28;20509;-71
2022/09/19 06:25:03;;;;;;;13.07;2.73;;;11.60;99.90;;;;;;5078155;28;20451;-71
2022/09/19 06:27:30;;;;;;;12.53;2.33;;;11.60;99.90;;;;;;5077734;28;20455;-71
2022/09/19 06:29:58;;;;;;;12.80;3.20;;;11.80;99.90;;;;;;5077689;28;20463;-71
2022/09/19 06:32:25;;;;;;;9.57;2.47;;;11.80;99.90;;;;;;5080035;28;21036;-70
2022/09/19 06:34:52;;;;;;;10.93;2.23;;;11.90;99.90;;;;;;5080914;28;20454;-70
2022/09/19 06:37:19;;;;;;;14.30;3.90;;;11.90;99.90;;;;;;5081943;28;20447;-71
2022/09/19 06:39:45;;;;;;;8.23;2.63;;;12.00;99.90;;;;;;5077314;28;20455;-70
2022/09/19 06:42:12;;;;;;;7.63;2.30;;;12.00;99.90;;;;;;5077903;28;20475;-71
2022/09/19 06:44:39;;;;;;;11.73;3.37;;;12.10;99.90;;;;;;5078785;28;20451;-70
2022/09/19 06:47:07;;;;;;;8.20;2.30;;;12.10;99.90;;;;;;5087825;28;20459;-71
2022/09/19 06:49:35;;;;;;;5.03;1.93;;;12.20;99.90;;;;;;5088575;28;20455;-71
2022/09/19 06:52:02;;;;;;;9.57;2.50;;;12.30;99.90;;;;;;5082482;28;20975;-71
2022/09/19 06:54:29;;;;;;;12.53;2.60;;;12.30;99.90;;;;;;5082947;28;20511;-71
2022/09/19 06:56:56;;;;;;;12.80;2.83;;;12.40;99.60;;;;;;5087734;28;20431;-71
2022/09/19 06:59:23;;;;;;;14.50;2.37;;;12.40;99.70;;;;;;5085056;28;20448;-72
2022/09/19 07:01:50;;;;;;;9.17;2.57;;;12.40;99.90;;;;;;5082719;28;20495;-71
2022/09/19 07:04:18;;;;;;;8.60;2.20;;;12.40;99.60;;;;;;5083152;28;20472;-72
2022/09/19 07:06:46;;;;;;;10.53;2.13;;;12.50;99.90;;;;;;5086133;28;20442;-72
2022/09/19 07:09:13;;;;;;;11.57;2.20;;;12.50;99.80;;;;;;5084147;28;20449;-71
2022/09/19 07:11:39;;;;;;;6.70;2.00;;;12.60;99.40;;;;;;5086382;28;20453;-71
2022/09/19 07:14:06;;;;;;;11.47;2.57;;;12.60;99.20;;;;;;5087964;28;20477;-72
2022/09/19 07:16:33;;;;;;;10.57;2.27;;;12.70;99.30;;;;;;5089920;28;20451;-72
2022/09/19 07:18:59;;;;;;;12.93;3.10;;;12.80;99.40;;;;;;5087543;28;20448;-71
2022/09/19 07:21:27;;;;;;;8.00;2.47;;;12.80;99.20;;;;;;5085089;28;20454;-72
2022/09/19 07:23:54;;;;;;;12.13;2.50;;;12.90;99.20;;;;;;5082473;28;20503;-72
2022/09/19 07:26:22;;;;;;;13.00;2.17;;;13.00;98.60;;;;;;5085497;28;20827;-72
2022/09/19 07:28:49;;;;;;;16.23;2.60;;;13.00;98.70;;;;;;5085316;28;20451;-72
2022/09/19 07:31:16;;;;;;;11.93;2.53;;;13.10;98.60;;;;;;5084617;28;20862;-72
2022/09/19 07:33:43;;;;;;;8.87;2.43;;;13.20;98.60;;;;;;5087339;28;20470;-72
2022/09/19 07:36:10;;;;;;;13.07;2.97;;;13.20;98.40;;;;;;5090615;28;20448;-72
2022/09/19 07:38:38;;;;;;;9.63;2.17;;;13.30;98.40;;;;;;5088542;28;20456;-72
2022/09/19 07:41:05;;;;;;;10.53;4.33;;;13.30;98.40;;;;;;5082337;28;20453;-72
2022/09/19 07:43:32;;;;;;;12.57;2.43;;;13.30;98.30;;;;;;5076642;28;20855;-72
2022/09/19 07:45:59;;;;;;;12.57;2.70;;;13.40;98.50;;;;;;5074671;28;20445;-72
2022/09/19 07:48:26;;;;;;;6.80;2.13;;;13.40;98.50;;;;;;5074798;28;20985;-72
2022/09/19 07:50:53;;;;;;;9.70;3.90;;;13.30;97.30;;;;;;5075191;28;20463;-72
2022/09/19 07:53:22;;;;;;;13.03;3.50;;;13.30;97.50;;;;;;5076495;28;20471;-71
2022/09/19 07:55:51;;;;;;;7.60;2.10;;;13.40;97.80;;;;;;5076172;28;20465;-72
2022/09/19 07:58:20;;;;;;;7.97;2.10;;;13.50;98.00;;;;;;5074722;28;20509;-72
2022/09/19 08:00:48;;;;;;;10.63;2.70;;;13.50;97.70;;;;;;5075531;28;20508;-72
2022/09/19 08:03:16;;;;;;;12.73;3.10;;;13.60;97.60;;;;;;5075323;28;20539;-72
2022/09/19 08:05:44;;;;;;;14.50;3.20;;;13.70;97.60;;;;;;5076948;28;20550;-72
2022/09/19 08:08:13;;;;;;;7.20;2.23;;;13.70;97.50;;;;;;5078480;28;20455;-72
2022/09/19 08:10:40;;;;;;;7.00;2.47;;;13.80;97.70;;;;;;5078219;28;20452;-72
2022/09/19 08:13:10;;;;;;;9.10;2.40;;;13.80;97.60;;;;;;5080988;28;20493;-72
2022/09/19 08:15:38;;;;;;;9.80;2.80;;;13.90;97.40;;;;;;5076602;28;20954;-71
2022/09/19 08:18:06;;;;;;;20.77;2.30;;;14.00;97.30;;;;;;5074656;28;20456;-72
2022/09/19 08:20:35;;;;;;;10.97;2.80;;;14.10;97.30;;;;;;5074142;28;20458;-72
2022/09/19 08:23:04;;;;;;;9.57;2.43;;;14.20;97.20;;;;;;5074110;28;20846;-72
2022/09/19 08:25:34;;;;;;;11.83;2.90;;;14.30;97.00;;;;;;5073988;28;20455;-72
2022/09/19 08:28:03;;;;;;;8.67;2.50;;;14.40;96.40;;;;;;5074092;28;20826;-72
2022/09/19 08:30:33;;;;;;;6.90;3.53;;;14.50;96.10;;;;;;5074378;28;20447;-72
2022/09/19 08:33:02;;;;;;;8.00;2.10;;;14.60;96.00;;;;;;5074002;28;20567;-72
2022/09/19 08:35:30;;;;;;;5.27;1.90;;;14.80;96.10;;;;;;5073754;28;20452;-73
2022/09/19 08:37:58;;;;;;;9.40;1.97;;;14.90;96.10;;;;;;5073787;28;20491;-73
2022/09/19 08:40:28;;;;;;;10.57;2.83;;;14.90;95.50;;;;;;5073882;28;20454;-73
2022/09/19 08:43:18;;;;;;;7.17;2.20;;;15.00;95.20;;;;;;5074770;28;20569;-73
2022/09/19 08:46:07;;;;;;;9.90;2.70;;;15.10;95.20;;;;;;5069531;28;20452;-73
2022/09/19 08:48:45;;;;;;;7.00;2.10;;;15.30;95.10;;;;;;5073698;28;20444;-72
2022/09/19 08:51:18;;;;;;;6.63;2.50;;;15.50;94.60;;;;;;5073461;28;20915;-73
2022/09/19 08:53:49;;;;;;;5.80;2.10;;;15.60;93.70;;;;;;5074019;28;20472;-72
2022/09/19 08:56:19;;;;;;;9.27;3.10;;;15.60;92.90;;;;;;5074297;28;20444;-72
2022/09/19 08:58:49;;;;;;;18.20;2.47;;;15.70;93.20;;;;;;5073655;28;20462;-72
2022/09/19 09:01:18;;;;;;;10.77;2.40;;;15.80;92.80;;;;;;5073662;28;20464;-72
2022/09/19 09:03:55;;;;;;;9.57;2.27;;;15.80;92.40;;;;;;5073102;28;20494;-73
2022/09/19 09:06:31;;;;;;;7.40;1.83;;;15.90;92.70;;;;;;5074517;28;20783;-72
2022/09/19 09:09:07;;;;;;;9.27;3.07;;;15.90;93.20;;;;;;5073607;28;20442;-73
2022/09/19 09:11:40;;;;;;;6.50;2.60;;;16.00;92.30;;;;;;5073647;28;20444;-73
2022/09/19 09:14:15;;;;;;;8.03;2.17;;;16.10;92.60;;;;;;5073560;28;20539;-73
2022/09/19 09:17:01;;;;;;;8.57;2.20;;;16.20;93.20;;;;;;5073330;28;20443;-73
2022/09/19 09:20:05;;;;;;;8.90;2.50;;;16.30;93.20;;;;;;5073471;28;20460;-73
2022/09/19 09:22:37;;;;;;;13.13;2.20;;;16.50;93.20;;;;;;5073421;28;20538;-73
2022/09/19 09:25:10;;;;;;;5.60;1.73;;;16.70;93.50;;;;;;5073520;28;20437;-73
2022/09/19 09:27:53;;;;;;;12.17;2.37;;;16.90;92.50;;;;;;5073083;28;20441;-73
2022/09/19 09:30:21;;;;;;;10.47;2.20;;;17.10;92.60;;;;;;5073081;28;20475;-72
2022/09/19 09:32:54;;;;;;;11.43;2.33;;;17.20;91.00;;;;;;5073366;28;20461;-72
2022/09/19 09:35:33;;;;;;;11.90;2.37;;;17.20;90.20;;;;;;5073492;28;20444;-73
2022/09/19 09:38:08;;;;;;;8.30;2.37;;;17.10;89.80;;;;;;5072942;28;20516;-73
2022/09/19 09:43:45;;;;;;;8.50;2.37;;;17.00;90.40;;;;;;5073368;28;21015;-73
2022/09/19 09:46:18;;;;;;;11.53;1.93;;;16.90;91.10;;;;;;5072662;28;20514;-73
2022/09/19 09:48:46;;;;;;;7.40;2.40;;;17.10;92.50;;;;;;5074725;28;20936;-73
2022/09/19 09:51:25;;;;;;;10.07;1.83;;;17.30;91.20;;;;;;5077058;28;20549;-73
2022/09/19 09:56:14;;;;;;;9.73;1.90;;;17.50;90.20;;;;;;5076580;28;20468;-73
2022/09/19 09:57:05;;;;;;;12.13;3.67;;;17.90;89.80;;;;;;5076587;28;20447;-73
2022/09/19 10:05:25;;;;;;;8.00;1.60;;;19.10;83.10;;;;;;5076792;28;20422;-73
2022/09/19 10:07:58;;;;;;;8.10;1.30;;;19.00;80.90;;;;;;5076611;28;20437;-73
2022/09/19 10:10:27;;;;;;;9.93;1.90;;;18.70;80.70;;;;;;5076739;28;20849;-72
2022/09/19 10:12:59;;;;;;;7.00;1.83;;;18.50;81.00;;;;;;5076522;28;20468;-72
2022/09/19 10:15:27;;;;;;;4.43;1.40;;;18.30;82.00;;;;;;5076491;28;20433;-72
2022/09/19 10:18:06;;;;;;;7.27;1.70;;;18.30;82.60;;;;;;5076855;28;20469;-73
2022/09/19 10:20:38;;;;;;;9.43;2.13;;;18.30;83.80;;;;;;5076092;28;20469;-73
2022/09/19 10:23:11;;;;;;;4.17;1.60;;;18.70;82.00;;;;;;5076271;28;20516;-73
2022/09/19 10:25:38;;;;;;;5.63;1.50;;;19.00;79.90;;;;;;5076189;28;20932;-72
2022/09/19 10:28:17;;;;;;;9.70;1.70;;;19.40;79.40;;;;;;5076431;28;20452;-73
2022/09/19 10:30:55;;;;;;;4.67;1.43;;;19.90;74.40;;;;;;5076599;28;20429;-73
2022/09/19 10:33:31;;;;;;;6.57;1.43;;;19.90;72.70;;;;;;5076254;28;20464;-73
2022/09/19 10:36:07;;;;;;;5.57;1.47;;;19.80;71.70;;;;;;5076305;28;20487;-73
2022/09/19 10:38:48;;;;;;;7.60;2.07;;;19.90;73.10;;;;;;5076070;28;20447;-73
2022/09/19 10:41:17;;;;;;;7.20;1.10;;;20.60;70.80;;;;;;5075549;28;20475;-73
2022/09/19 10:43:47;;;;;;;4.87;1.47;;;21.40;68.20;;;;;;5075945;28;20507;-73
2022/09/19 10:46:19;;;;;;;5.70;1.77;;;21.90;64.20;;;;;;5076058;28;20448;-73
2022/09/19 10:48:53;;;;;;;6.00;1.60;;;22.10;60.80;;;;;;5076139;28;20467;-73
2022/09/19 10:51:22;;;;;;;5.70;1.30;;;21.90;59.70;;;;;;5075607;28;20436;-73
2022/09/19 10:53:57;;;;;;;5.57;1.30;;;21.60;59.80;;;;;;5075832;28;20465;-73
2022/09/19 10:56:28;;;;;;;4.00;1.40;;;21.40;63.90;;;;;;5075984;28;20428;-73
2022/09/19 10:59:06;;;;;;;3.67;1.40;;;22.00;62.40;;;;;;5075996;28;20437;-73
2022/09/19 11:01:33;;;;;;;6.00;1.90;;;22.50;57.80;;;;;;5075506;28;20469;-73
2022/09/19 11:04:03;;;;;;;4.03;1.00;;;22.40;55.90;;;;;;5075470;28;21011;-73
2022/09/19 11:06:32;;;;;;;8.57;1.37;;;22.40;56.70;;;;;;5075725;28;20460;-73
2022/09/19 11:09:00;;;;;;;4.57;1.67;;;22.40;56.30;;;;;;5075615;28;20861;-72
2022/09/19 11:11:36;;;;;;;5.30;1.10;;;22.50;55.80;;;;;;5075916;28;20437;-73
2022/09/19 11:14:28;;;;;;;4.40;1.20;;;22.20;55.30;;;;;;5075533;28;20948;-73
2022/09/19 11:17:15;;;;;;;3.47;0.97;;;22.00;55.60;;;;;;5072587;28;20519;-72
2022/09/19 11:20:05;;;;;;;7.63;1.33;;;22.20;56.20;;;;;;5075676;28;20482;-73
2022/09/19 11:22:44;;;;;;;4.50;1.17;;;22.60;54.50;;;;;;5075205;28;20465;-73
2022/09/19 11:25:18;;;;;;;3.10;1.13;;;22.70;54.30;;;;;;5075613;28;20432;-73
2022/09/19 11:28:01;;;;;;;8.60;1.83;;;22.40;56.20;;;;;;5075416;28;20436;-73
2022/09/19 11:30:30;;;;;;;4.20;1.77;;;23.00;54.70;;;;;;5075138;28;20425;-73
2022/09/19 11:33:16;;;;;;;9.53;1.70;;;24.20;54.40;;;;;;5075551;28;20473;-74
2022/09/19 11:35:50;;;;;;;4.63;1.47;;;25.20;49.10;;;;;;5075159;28;20429;-74
2022/09/19 11:38:32;;;;;;;8.47;1.80;;;25.70;48.60;;;;;;5075339;28;20442;-74
2022/09/19 11:41:12;;;;;;;6.20;1.57;;;26.10;46.70;;;;;;5075083;28;20425;-73
2022/09/19 11:43:56;;;;;;;6.80;1.77;;;26.40;44.00;;;;;;5075324;28;20868;-73
2022/09/19 11:46:31;;;;;;;10.77;1.70;;;26.50;43.70;;;;;;5075746;28;20437;-73
2022/09/19 11:49:19;;;;;;;7.43;1.63;;;26.60;42.90;;;;;;5074845;28;20814;-73
2022/09/19 11:51:56;;;;;;;3.93;1.27;;;26.70;42.50;;;;;;5074893;28;20975;-73
2022/09/19 11:54:54;;;;;;;5.37;1.50;;;26.40;42.30;;;;;;5075379;28;20496;-74
2022/09/19 11:57:37;;;;;;;10.43;1.83;;;26.10;42.40;;;;;;5074370;28;20896;-73
2022/09/19 12:00:12;;;;;;;7.03;1.87;;;25.60;43.70;;;;;;5074486;28;20437;-73
2022/09/19 12:02:58;;;;;;;6.17;1.90;;;25.00;45.60;;;;;;5074277;28;20891;-73
2022/09/19 12:05:35;;;;;;;4.40;1.27;;;24.30;47.10;;;;;;5075187;28;20482;-73
2022/09/19 12:08:19;;;;;;;8.93;1.67;;;23.50;48.30;;;;;;5074528;28;20425;-73
2022/09/19 12:10:53;;;;;;;8.47;2.33;;;22.90;49.50;;;;;;5074415;28;20796;-73
2022/09/19 12:13:23;;;;;;;4.70;1.17;;;22.30;51.50;;;;;;5074517;28;20983;-73
2022/09/19 12:15:54;;;;;;;3.13;0.80;;;21.70;52.40;;;;;;5074491;28;20429;-73
2022/09/19 12:18:24;;;;;;;2.40;0.60;;;21.30;55.00;;;;;;5074949;28;20432;-70
2022/09/19 12:20:54;;;;;;;4.27;1.00;;;20.60;57.20;;;;;;5073960;28;20445;-70
2022/09/19 12:26:18;;;;;;;3.73;1.13;;;19.40;62.70;;;;;;5074271;28;20404;-70
2022/09/19 12:28:52;;;;;;;1.90;0.80;;;18.60;67.70;;;;;;5074392;28;20433;-70
2022/09/19 12:31:26;;;;;;;1.73;0.70;;;18.00;70.00;;;;;;5074104;28;20811;-70
2022/09/19 12:33:57;;;;;;;1.83;0.73;;;17.60;74.30;;;;;;5073758;28;20469;-70
2022/09/19 12:36:32;;;;;;;2.30;0.80;;;17.30;77.60;;;;;;5074817;28;20849;-70
2022/09/19 12:39:07;;;;;;;4.07;1.20;;;17.00;81.50;;;;;;5074169;28;20439;-70
2022/09/19 12:41:43;;;;;;;2.07;1.20;;;16.70;82.30;;;;;;5073997;28;20428;-70
2022/09/19 12:44:19;;;;;;;1.90;0.60;;;16.50;85.30;;;;;;5074186;28;20488;-71
2022/09/19 12:46:55;;;;;;;2.20;0.60;;;16.20;87.30;;;;;;5074305;28;20437;-71
2022/09/19 12:49:31;;;;;;;4.17;1.13;;;15.90;88.90;;;;;;5073625;28;20843;-72
2022/09/19 12:52:04;;;;;;;2.90;0.97;;;15.80;90.50;;;;;;5073860;28;20443;-72
2022/09/19 12:54:39;;;;;;;2.30;1.67;;;15.70;90.60;;;;;;5073771;28;21021;-72
2022/09/19 12:57:12;;;;;;;5.87;1.10;;;15.60;91.00;;;;;;5073991;28;20877;-72
2022/09/19 12:59:40;;;;;;;4.23;1.30;;;15.50;91.70;;;;;;5073725;28;20455;-72
2022/09/19 13:02:22;;;;;;;4.33;1.27;;;15.50;92.70;;;;;;5073449;28;20475;-73
2022/09/19 13:04:57;;;;;;;3.20;0.80;;;15.50;92.80;;;;;;5073767;28;20475;-73
2022/09/19 13:07:31;;;;;;;5.37;1.20;;;15.60;92.80;;;;;;5074045;28;20431;-73
2022/09/19 13:10:08;;;;;;;2.60;1.10;;;15.70;93.00;;;;;;5073336;28;20806;-72
2022/09/19 13:12:43;;;;;;;5.13;1.07;;;15.80;93.40;;;;;;5073557;28;20475;-72
2022/09/19 13:15:21;;;;;;;3.27;0.73;;;15.90;93.40;;;;;;5073510;28;20435;-73
2022/09/19 13:23:32;;;;;;;15.83;2.27;;;16.80;92.50;;;;;;5074251;28;20567;-73
2022/09/19 13:26:18;;;;;;;7.57;1.63;;;17.10;92.00;;;;;;5077432;28;20911;-73
2022/09/19 13:28:48;;;;;;;4.57;1.37;;;17.30;90.80;;;;;;5077554;28;20803;-73
2022/09/19 13:31:20;;;;;;;4.70;0.83;;;17.60;90.00;;;;;;5077296;28;20445;-73